Time;durP1;ratioP1;P1;durP2;ratioP2;P2;SDS_P1;SDS_P2;PMS_P1;PMS_P2;Temp;Humidity;BMP_temperature;BMP_pressure;BME280_temperature;BME280_humidity;BME280_pressure;Samples;Min_cycle;Max_cycle;Signal;HPM_P1;HPM_P2
2021/04/09 00:00:18;;;;;;;20.38;7.75;;;1.70;96.20;;;;;;4798979;29;20078;-75
2021/04/09 00:02:45;;;;;;;17.45;7.07;;;1.80;97.30;;;;;;4786620;29;20047;-75
2021/04/09 00:05:14;;;;;;;16.98;7.80;;;1.80;97.00;;;;;;4774808;29;20116;-75
2021/04/09 00:07:41;;;;;;;16.30;7.72;;;1.90;96.10;;;;;;4803350;29;20047;-75
2021/04/09 00:10:08;;;;;;;18.10;6.65;;;1.80;96.30;;;;;;4780548;29;20051;-75
2021/04/09 00:12:37;;;;;;;12.48;5.60;;;1.60;97.10;;;;;;4780641;29;20060;-76
2021/04/09 00:15:06;;;;;;;12.40;5.40;;;1.90;97.40;;;;;;4791099;29;20054;-76
2021/04/09 00:17:33;;;;;;;12.50;5.47;;;1.70;97.40;;;;;;4789051;29;20484;-75
2021/04/09 00:20:00;;;;;;;13.85;4.80;;;1.80;97.70;;;;;;4786846;29;20078;-75
2021/04/09 00:22:27;;;;;;;10.25;4.65;;;1.90;97.60;;;;;;4803155;29;20046;-75
2021/04/09 00:24:53;;;;;;;12.10;4.45;;;1.90;97.10;;;;;;4788494;29;20051;-75
2021/04/09 00:27:20;;;;;;;16.30;5.78;;;1.70;96.70;;;;;;4800018;29;20058;-75
2021/04/09 00:29:46;;;;;;;10.25;4.55;;;1.80;96.00;;;;;;4794912;29;20043;-75
2021/04/09 00:32:13;;;;;;;12.63;4.63;;;1.80;97.20;;;;;;4787995;29;20058;-75
2021/04/09 00:34:39;;;;;;;12.77;4.70;;;1.90;97.10;;;;;;4789557;29;20139;-75
2021/04/09 00:37:06;;;;;;;11.80;4.82;;;1.70;96.10;;;;;;4778935;30;20061;-75
2021/04/09 00:39:32;;;;;;;9.98;4.43;;;1.70;96.40;;;;;;4788336;29;20515;-75
2021/04/09 00:41:59;;;;;;;9.95;5.10;;;1.70;96.10;;;;;;4788190;29;20086;-76
2021/04/09 00:44:25;;;;;;;15.77;5.05;;;1.70;95.60;;;;;;4789728;29;20049;-75
2021/04/09 00:46:52;;;;;;;14.43;5.22;;;1.70;96.20;;;;;;4789436;29;20098;-75
2021/04/09 00:49:18;;;;;;;11.48;5.00;;;1.70;96.70;;;;;;4774877;29;20081;-75
2021/04/09 00:51:45;;;;;;;12.30;5.03;;;1.50;96.70;;;;;;4804895;29;20092;-75
2021/04/09 00:54:12;;;;;;;14.32;4.95;;;1.40;96.30;;;;;;4797384;29;20047;-75
2021/04/09 00:56:38;;;;;;;14.05;5.03;;;1.30;96.60;;;;;;4793406;29;20042;-76
2021/04/09 00:59:05;;;;;;;14.20;6.13;;;1.40;96.60;;;;;;4789810;29;20054;-75
2021/04/09 01:01:32;;;;;;;11.70;5.43;;;1.40;96.20;;;;;;4790489;29;20058;-76
2021/04/09 01:04:00;;;;;;;13.60;5.32;;;1.40;95.90;;;;;;4785621;29;20129;-76
2021/04/09 01:06:27;;;;;;;16.50;5.88;;;1.30;96.10;;;;;;4786012;29;20039;-75
2021/04/09 01:08:53;;;;;;;15.25;6.03;;;1.20;96.20;;;;;;4788634;29;20043;-75
2021/04/09 01:11:20;;;;;;;15.13;5.90;;;1.20;96.60;;;;;;4803821;29;20035;-75
2021/04/09 01:13:47;;;;;;;13.07;5.45;;;1.20;96.60;;;;;;4789898;29;20061;-76
2021/04/09 01:16:29;;;;;;;12.18;5.50;;;1.30;96.60;;;;;;4792459;29;20096;-75
2021/04/09 01:19:00;;;;;;;12.43;5.75;;;1.20;95.50;;;;;;4789391;29;20043;-75
2021/04/09 01:21:32;;;;;;;10.57;4.95;;;1.20;95.70;;;;;;4803690;29;20488;-75
2021/04/09 01:24:17;;;;;;;11.37;5.37;;;1.30;96.20;;;;;;4788377;29;20051;-75
2021/04/09 01:26:54;;;;;;;12.70;4.75;;;1.20;96.00;;;;;;4788631;29;20054;-75
2021/04/09 01:29:53;;;;;;;10.75;4.57;;;1.10;96.00;;;;;;4805811;29;20042;-75
2021/04/09 01:32:19;;;;;;;11.63;5.25;;;1.10;96.00;;;;;;4801250;29;20057;-75
2021/04/09 01:34:50;;;;;;;11.77;4.47;;;1.00;96.50;;;;;;4793011;29;20054;-75
2021/04/09 01:37:20;;;;;;;14.45;5.30;;;1.10;96.40;;;;;;4793945;29;20841;-75
2021/04/09 01:40:08;;;;;;;12.38;4.43;;;1.00;96.40;;;;;;4785784;29;20058;-76
2021/04/09 01:42:36;;;;;;;12.20;5.00;;;1.00;96.00;;;;;;4796872;29;20066;-75
2021/04/09 01:45:04;;;;;;;10.82;4.30;;;1.00;95.70;;;;;;4788944;29;20503;-75
2021/04/09 01:47:36;;;;;;;9.57;4.88;;;1.00;95.80;;;;;;4774493;29;20063;-75
2021/04/09 01:50:04;;;;;;;11.60;5.07;;;0.70;96.60;;;;;;4788031;29;20051;-76
2021/04/09 01:52:34;;;;;;;11.38;5.10;;;0.90;96.50;;;;;;4789951;29;20047;-75
2021/04/09 01:55:03;;;;;;;12.93;5.43;;;0.80;96.50;;;;;;4798177;29;20057;-75
2021/04/09 01:57:31;;;;;;;15.57;5.75;;;0.70;96.40;;;;;;4794619;29;20666;-75
2021/04/09 01:59:59;;;;;;;15.02;5.03;;;0.90;96.30;;;;;;4807573;29;20070;-75
2021/04/09 02:02:26;;;;;;;13.32;5.22;;;0.70;96.50;;;;;;4799000;29;20120;-75
2021/04/09 02:04:54;;;;;;;10.93;5.00;;;0.70;96.80;;;;;;4791751;29;20070;-75
2021/04/09 02:07:22;;;;;;;14.43;6.07;;;0.90;96.30;;;;;;4793818;29;20092;-75
2021/04/09 02:09:51;;;;;;;13.15;5.00;;;0.90;95.80;;;;;;4807247;29;20059;-75
2021/04/09 02:12:19;;;;;;;12.35;5.00;;;0.80;96.00;;;;;;4791733;29;20070;-75
2021/04/09 02:14:46;;;;;;;12.45;4.60;;;0.60;95.40;;;;;;4810530;29;20050;-75
2021/04/09 02:17:14;;;;;;;11.45;4.60;;;0.70;96.00;;;;;;4793827;29;20084;-75
2021/04/09 02:19:42;;;;;;;14.43;4.68;;;0.70;96.60;;;;;;4810186;29;20487;-75
2021/04/09 02:22:09;;;;;;;12.55;4.80;;;0.80;96.20;;;;;;4796126;29;20054;-75
2021/04/09 02:24:37;;;;;;;11.45;4.30;;;0.60;96.00;;;;;;4799781;29;20533;-75
2021/04/09 02:27:06;;;;;;;9.55;4.35;;;0.40;96.00;;;;;;4794873;29;20055;-75
2021/04/09 02:29:34;;;;;;;12.05;4.95;;;0.30;96.30;;;;;;4817374;29;20042;-75
2021/04/09 02:32:01;;;;;;;10.63;4.32;;;0.60;96.60;;;;;;4798105;29;20496;-75
2021/04/09 02:34:28;;;;;;;12.50;4.60;;;0.70;96.10;;;;;;4807277;29;20046;-76
2021/04/09 02:36:55;;;;;;;10.82;4.75;;;0.70;95.90;;;;;;4794203;29;20057;-75
2021/04/09 02:39:28;;;;;;;12.10;4.53;;;0.60;96.20;;;;;;4783235;29;20053;-76
2021/04/09 02:41:58;;;;;;;14.15;4.50;;;0.60;95.70;;;;;;4793592;29;20050;-76
2021/04/09 02:44:24;;;;;;;12.40;4.40;;;0.30;95.40;;;;;;4808387;29;20050;-75
2021/04/09 02:47:01;;;;;;;10.38;4.10;;;0.30;96.30;;;;;;4799165;29;20043;-76
2021/04/09 02:49:30;;;;;;;10.60;5.03;;;0.20;96.20;;;;;;4811430;29;20122;-75
2021/04/09 02:52:00;;;;;;;8.77;4.35;;;0.20;96.40;;;;;;4816590;29;20046;-75
2021/04/09 02:54:29;;;;;;;11.48;4.72;;;0.20;96.50;;;;;;4796327;29;20127;-75
2021/04/09 02:56:58;;;;;;;13.27;5.10;;;0.30;95.70;;;;;;4795406;29;20039;-75
2021/04/09 02:59:27;;;;;;;10.00;4.40;;;0.30;96.60;;;;;;4793548;29;20058;-75
2021/04/09 03:01:54;;;;;;;11.50;4.57;;;0.10;96.40;;;;;;4787101;29;20055;-75
2021/04/09 03:04:21;;;;;;;12.52;5.05;;;0.10;96.50;;;;;;4809670;29;20057;-75
2021/04/09 03:06:48;;;;;;;9.43;4.00;;;0.00;96.40;;;;;;4798290;29;20057;-75
2021/04/09 03:09:15;;;;;;;10.00;4.30;;;-0.10;97.10;;;;;;4805770;29;20055;-75
2021/04/09 03:11:42;;;;;;;11.82;4.68;;;-0.10;97.50;;;;;;4806164;29;20115;-75
2021/04/09 03:14:11;;;;;;;13.02;5.10;;;0.00;97.30;;;;;;4812803;29;20050;-75
2021/04/09 03:16:52;;;;;;;11.90;4.90;;;0.10;97.40;;;;;;4794246;29;20058;-75
2021/04/09 03:19:19;;;;;;;15.77;4.45;;;0.20;96.90;;;;;;4789867;29;20059;-75
2021/04/09 03:21:45;;;;;;;14.77;4.88;;;0.40;96.10;;;;;;4798253;29;20119;-75
2021/04/09 03:24:12;;;;;;;10.30;4.60;;;0.00;96.00;;;;;;4800968;29;20070;-75
2021/04/09 03:26:41;;;;;;;13.95;4.75;;;0.10;96.20;;;;;;4783151;29;20154;-75
2021/04/09 03:29:08;;;;;;;10.63;4.72;;;0.20;96.00;;;;;;4790991;29;20038;-75
2021/04/09 03:31:35;;;;;;;15.38;5.15;;;0.20;95.60;;;;;;4787903;29;20051;-75
2021/04/09 03:34:02;;;;;;;15.48;4.68;;;0.50;95.70;;;;;;4789954;29;20499;-76
2021/04/09 03:36:29;;;;;;;14.77;5.70;;;0.10;95.90;;;;;;4785436;29;20051;-75
2021/04/09 03:38:55;;;;;;;11.07;4.38;;;0.00;95.50;;;;;;4789174;29;20062;-75
2021/04/09 03:41:22;;;;;;;13.05;5.15;;;0.00;96.10;;;;;;4790586;29;20046;-75
2021/04/09 03:43:49;;;;;;;16.67;6.53;;;0.30;95.30;;;;;;4787410;29;20058;-76
2021/04/09 03:46:15;;;;;;;16.67;6.70;;;0.10;95.70;;;;;;4806024;29;20373;-75
2021/04/09 03:48:42;;;;;;;18.33;6.30;;;0.10;95.40;;;;;;4787556;30;20050;-75
2021/04/09 03:51:09;;;;;;;15.05;6.10;;;0.20;95.00;;;;;;4804229;29;20058;-75
2021/04/09 03:53:36;;;;;;;13.48;6.38;;;0.00;95.10;;;;;;4787542;29;20051;-75
2021/04/09 03:56:02;;;;;;;14.10;6.47;;;-0.10;94.70;;;;;;4806404;29;21092;-75
2021/04/09 03:58:29;;;;;;;18.23;6.30;;;-0.30;95.00;;;;;;4788349;30;20047;-75
2021/04/09 04:00:56;;;;;;;17.63;5.85;;;-0.30;95.50;;;;;;4785030;29;20051;-76
2021/04/09 04:03:23;;;;;;;19.25;7.40;;;-0.10;95.30;;;;;;4787159;29;20035;-75
2021/04/09 04:05:49;;;;;;;17.38;7.30;;;-0.20;94.90;;;;;;4803878;29;20054;-76
2021/04/09 04:08:16;;;;;;;18.08;8.25;;;-0.30;95.00;;;;;;4784885;29;20058;-75
2021/04/09 04:10:42;;;;;;;16.02;7.53;;;-0.40;95.70;;;;;;4797036;29;20054;-76
2021/04/09 04:13:09;;;;;;;26.52;9.02;;;-0.10;95.20;;;;;;4793444;29;20081;-76
2021/04/09 04:15:36;;;;;;;24.95;9.13;;;-0.20;94.80;;;;;;4803861;29;20484;-75
2021/04/09 04:18:02;;;;;;;26.58;11.20;;;-0.40;95.50;;;;;;4790202;29;20055;-75
2021/04/09 04:20:29;;;;;;;27.95;11.27;;;-0.30;95.20;;;;;;4794816;29;20428;-75
2021/04/09 04:22:55;;;;;;;30.02;12.40;;;-0.20;95.40;;;;;;4809048;29;20050;-75
2021/04/09 04:25:22;;;;;;;26.48;11.30;;;-0.40;95.40;;;;;;4805614;29;20394;-75
2021/04/09 04:27:49;;;;;;;29.13;12.25;;;-0.50;95.50;;;;;;4803234;29;20035;-75
2021/04/09 04:30:15;;;;;;;34.95;14.25;;;-0.60;95.90;;;;;;4788755;29;20081;-75
2021/04/09 04:32:42;;;;;;;38.60;15.95;;;-0.50;96.00;;;;;;4800389;29;20046;-75
2021/04/09 04:35:10;;;;;;;37.53;14.73;;;-0.40;96.10;;;;;;4800719;29;20099;-75
2021/04/09 04:37:36;;;;;;;46.40;18.27;;;-0.40;96.10;;;;;;4792355;29;20345;-76
2021/04/09 04:40:04;;;;;;;49.03;18.67;;;-0.40;95.70;;;;;;4795554;29;20057;-76
2021/04/09 04:42:30;;;;;;;46.97;18.85;;;-0.40;96.30;;;;;;4790155;29;20051;-75
2021/04/09 04:44:57;;;;;;;46.20;19.25;;;-0.30;96.30;;;;;;4795107;29;20051;-75
2021/04/09 04:47:23;;;;;;;50.55;20.55;;;0.00;96.30;;;;;;4797961;29;20059;-76
2021/04/09 04:49:50;;;;;;;39.65;18.15;;;-0.10;96.70;;;;;;4795891;29;20126;-76
2021/04/09 04:52:17;;;;;;;41.05;17.17;;;0.00;96.30;;;;;;4783646;29;20043;-76
2021/04/09 04:54:44;;;;;;;38.15;15.77;;;-0.30;96.80;;;;;;4791829;29;20423;-75
2021/04/09 04:57:10;;;;;;;38.67;15.45;;;-0.20;97.10;;;;;;4773399;29;20099;-75
2021/04/09 04:59:37;;;;;;;38.17;14.50;;;0.00;97.30;;;;;;4784315;29;21520;-75
2021/04/09 05:02:03;;;;;;;31.73;13.43;;;0.10;97.00;;;;;;4788192;29;20070;-75
2021/04/09 05:04:30;;;;;;;28.83;13.02;;;0.10;96.70;;;;;;4773228;29;20050;-75
2021/04/09 05:06:57;;;;;;;28.63;12.85;;;0.20;97.20;;;;;;4785736;29;20067;-75
2021/04/09 05:09:23;;;;;;;28.88;12.15;;;0.20;97.20;;;;;;4791874;29;20070;-75
2021/04/09 05:11:50;;;;;;;35.28;13.38;;;0.40;96.70;;;;;;4804453;29;20046;-75
2021/04/09 05:14:16;;;;;;;30.58;13.30;;;0.20;96.80;;;;;;4788420;29;20134;-75
2021/04/09 05:16:43;;;;;;;32.58;12.10;;;0.10;97.80;;;;;;4783751;29;20122;-75
2021/04/09 05:19:10;;;;;;;31.70;13.73;;;0.40;97.80;;;;;;4769890;29;20152;-75
2021/04/09 05:21:37;;;;;;;27.40;11.93;;;0.50;98.00;;;;;;4770845;29;20062;-75
2021/04/09 05:24:03;;;;;;;29.27;11.68;;;0.60;97.90;;;;;;4774462;29;20597;-75
2021/04/09 05:26:30;;;;;;;28.48;10.68;;;0.70;98.00;;;;;;4789421;29;20069;-75
2021/04/09 05:28:57;;;;;;;25.58;11.50;;;0.80;97.70;;;;;;4791061;29;20053;-75
2021/04/09 05:31:23;;;;;;;26.92;11.43;;;0.70;97.80;;;;;;4795137;29;20049;-75
2021/04/09 05:33:50;;;;;;;29.77;10.85;;;1.00;97.80;;;;;;4783258;29;20055;-75
2021/04/09 05:36:17;;;;;;;27.50;11.88;;;1.00;97.70;;;;;;4789328;29;20414;-75
2021/04/09 05:38:44;;;;;;;23.38;10.85;;;1.10;97.70;;;;;;4790981;29;20523;-75
2021/04/09 05:41:10;;;;;;;28.90;10.38;;;1.30;97.80;;;;;;4783733;29;20111;-75
2021/04/09 05:43:37;;;;;;;26.23;11.63;;;1.30;97.30;;;;;;4793397;29;20058;-75
2021/04/09 05:46:03;;;;;;;29.67;11.77;;;1.40;97.40;;;;;;4784032;29;20396;-75
2021/04/09 05:48:30;;;;;;;22.70;9.77;;;1.40;97.20;;;;;;4788509;29;20061;-75
2021/04/09 05:50:56;;;;;;;25.40;10.98;;;1.40;97.00;;;;;;4785223;29;20738;-75
2021/04/09 05:53:23;;;;;;;23.23;11.07;;;1.60;97.10;;;;;;4778152;29;20051;-75
2021/04/09 05:55:50;;;;;;;24.65;11.15;;;1.70;96.90;;;;;;4794346;29;20058;-75
2021/04/09 05:58:16;;;;;;;27.25;11.07;;;1.70;96.90;;;;;;4785963;29;20059;-75
2021/04/09 06:00:43;;;;;;;24.13;10.40;;;1.70;97.60;;;;;;4785979;29;20062;-75
2021/04/09 06:03:09;;;;;;;19.48;10.15;;;1.90;97.10;;;;;;4768945;29;20108;-75
2021/04/09 06:05:36;;;;;;;23.55;9.52;;;2.10;97.10;;;;;;4787199;29;20115;-75
2021/04/09 06:08:05;;;;;;;24.30;10.32;;;2.00;96.60;;;;;;4804042;29;20060;-76
2021/04/09 06:10:32;;;;;;;28.17;10.43;;;2.20;97.30;;;;;;4785864;29;20043;-75
2021/04/09 06:12:59;;;;;;;27.20;10.85;;;2.40;96.90;;;;;;4780143;29;20047;-75
2021/04/09 06:15:26;;;;;;;21.80;10.27;;;2.50;96.60;;;;;;4792298;29;20043;-75
2021/04/09 06:17:53;;;;;;;21.77;9.55;;;2.50;96.40;;;;;;4782513;29;20097;-76
2021/04/09 06:20:19;;;;;;;23.17;10.70;;;2.50;96.60;;;;;;4807229;29;20062;-75
2021/04/09 06:22:47;;;;;;;23.23;10.02;;;2.60;96.80;;;;;;4794107;29;20065;-75
2021/04/09 06:25:14;;;;;;;21.95;9.98;;;2.80;96.90;;;;;;4789079;29;20559;-75
2021/04/09 06:27:41;;;;;;;22.23;9.90;;;2.90;97.40;;;;;;4787270;29;20043;-76
2021/04/09 06:30:08;;;;;;;25.95;10.93;;;3.10;97.00;;;;;;4785282;29;20386;-73
2021/04/09 06:32:35;;;;;;;23.58;10.60;;;3.10;96.90;;;;;;4792190;29;20077;-73
2021/04/09 06:35:03;;;;;;;32.40;13.82;;;3.20;96.20;;;;;;4780133;29;20500;-73
2021/04/09 06:37:30;;;;;;;28.35;13.00;;;3.40;95.60;;;;;;4806494;29;20535;-73
2021/04/09 06:39:56;;;;;;;35.28;13.40;;;3.40;95.50;;;;;;4780080;29;20042;-73
2021/04/09 06:42:24;;;;;;;28.80;13.13;;;3.60;94.90;;;;;;4808409;29;20042;-73
2021/04/09 06:44:51;;;;;;;24.13;12.07;;;3.70;94.60;;;;;;4784260;29;20388;-73
2021/04/09 06:47:19;;;;;;;27.23;12.18;;;3.70;94.60;;;;;;4793183;29;20095;-73
2021/04/09 06:49:46;;;;;;;27.50;12.38;;;3.90;94.40;;;;;;4789862;29;20039;-73
2021/04/09 06:52:14;;;;;;;26.73;11.50;;;4.00;94.00;;;;;;4809052;29;20103;-73
2021/04/09 06:54:42;;;;;;;29.85;11.50;;;4.10;94.30;;;;;;4803550;29;20147;-73
2021/04/09 06:57:11;;;;;;;20.35;9.35;;;4.10;93.90;;;;;;4792779;29;20491;-73
2021/04/09 06:59:41;;;;;;;22.77;8.93;;;4.20;93.40;;;;;;4801962;29;20054;-73
2021/04/09 07:02:14;;;;;;;22.70;9.32;;;4.30;93.20;;;;;;4786568;29;20169;-73
2021/04/09 07:04:42;;;;;;;23.15;8.80;;;4.40;93.00;;;;;;4805843;29;20473;-73
2021/04/09 07:07:11;;;;;;;24.88;9.38;;;4.50;92.50;;;;;;4790939;29;20054;-73
2021/04/09 07:09:39;;;;;;;19.27;7.18;;;4.50;92.50;;;;;;4768632;29;20043;-73
2021/04/09 07:12:06;;;;;;;19.08;7.75;;;4.60;92.20;;;;;;4785068;29;20059;-73
2021/04/09 07:14:54;;;;;;;18.08;7.15;;;4.80;92.00;;;;;;4801110;29;22001;-73
2021/04/09 07:17:35;;;;;;;17.25;6.50;;;4.90;90.50;;;;;;4788187;29;20053;-73
2021/04/09 07:20:15;;;;;;;14.90;6.40;;;5.00;90.40;;;;;;4790755;29;20061;-73
2021/04/09 07:22:43;;;;;;;13.73;6.20;;;5.10;89.30;;;;;;4805485;29;20445;-73
2021/04/09 07:25:16;;;;;;;12.15;5.40;;;5.20;89.00;;;;;;4789111;29;20487;-73
2021/04/09 07:27:46;;;;;;;11.50;5.20;;;5.40;87.80;;;;;;4785257;29;20044;-73
2021/04/09 07:30:27;;;;;;;10.00;5.40;;;5.50;87.80;;;;;;4775449;29;20058;-73
2021/04/09 07:33:05;;;;;;;13.30;4.57;;;5.70;85.60;;;;;;4792933;29;20046;-73
2021/04/09 07:35:50;;;;;;;9.43;4.05;;;5.80;85.70;;;;;;4788176;29;20050;-73
2021/04/09 07:38:33;;;;;;;13.35;4.40;;;5.80;83.70;;;;;;4793976;29;20055;-73
2021/04/09 07:41:08;;;;;;;11.00;4.50;;;5.90;83.30;;;;;;4805373;29;20162;-73
2021/04/09 07:43:37;;;;;;;9.43;4.10;;;6.00;83.10;;;;;;4786979;29;20063;-73
2021/04/09 07:46:05;;;;;;;8.88;3.92;;;6.10;81.80;;;;;;4802203;29;20566;-74
2021/04/09 07:48:39;;;;;;;9.45;3.90;;;6.10;80.50;;;;;;4807681;29;20047;-73
2021/04/09 07:51:17;;;;;;;17.98;6.03;;;6.20;79.70;;;;;;4792052;29;20074;-73
2021/04/09 07:53:46;;;;;;;9.68;3.97;;;6.30;78.80;;;;;;4800648;29;20043;-73
2021/04/09 07:56:17;;;;;;;9.93;3.92;;;6.40;77.30;;;;;;4801117;29;20043;-73
2021/04/09 07:58:56;;;;;;;10.30;3.67;;;6.50;77.40;;;;;;4782236;29;20061;-73
2021/04/09 08:01:26;;;;;;;9.50;3.85;;;6.60;75.80;;;;;;4786490;29;20055;-73
2021/04/09 08:03:55;;;;;;;8.27;3.60;;;6.60;75.40;;;;;;4790848;29;20058;-73
2021/04/09 08:06:23;;;;;;;9.30;2.97;;;6.60;75.70;;;;;;4778001;29;20047;-74
2021/04/09 08:08:50;;;;;;;7.68;3.50;;;6.70;74.80;;;;;;4796453;29;20055;-73
2021/04/09 08:11:32;;;;;;;8.82;3.75;;;6.80;74.40;;;;;;4795922;29;20152;-74
2021/04/09 08:14:14;;;;;;;8.18;2.97;;;6.90;71.90;;;;;;4796406;29;20047;-74
2021/04/09 08:16:47;;;;;;;12.65;3.42;;;7.10;71.50;;;;;;4785419;29;20054;-73
2021/04/09 08:19:24;;;;;;;7.78;2.47;;;7.20;70.40;;;;;;4802994;29;20054;-73
2021/04/09 08:21:52;;;;;;;7.03;3.00;;;7.20;68.80;;;;;;4800524;29;20046;-73
2021/04/09 08:24:22;;;;;;;8.88;3.13;;;7.20;68.80;;;;;;4801294;29;20403;-73
2021/04/09 08:26:49;;;;;;;7.13;2.80;;;7.30;70.50;;;;;;4784866;29;20055;-74
2021/04/09 08:29:19;;;;;;;10.55;3.60;;;7.40;69.20;;;;;;4778267;29;20054;-74
2021/04/09 08:31:47;;;;;;;5.43;2.45;;;7.60;69.70;;;;;;4794088;29;20068;-73
2021/04/09 08:34:20;;;;;;;7.97;3.28;;;7.70;67.70;;;;;;4797395;29;20039;-73
2021/04/09 08:36:48;;;;;;;7.68;2.88;;;7.80;67.30;;;;;;4792754;29;20074;-74
2021/04/09 08:39:28;;;;;;;8.82;3.13;;;7.90;67.60;;;;;;4777463;29;20059;-73
2021/04/09 08:41:57;;;;;;;6.95;2.92;;;8.00;69.20;;;;;;4794351;29;20159;-74
2021/04/09 08:44:24;;;;;;;7.95;2.60;;;8.10;67.20;;;;;;4797471;29;20070;-73
2021/04/09 08:46:50;;;;;;;7.97;2.65;;;8.10;68.10;;;;;;4782960;29;20065;-73
2021/04/09 08:49:20;;;;;;;11.07;2.95;;;8.20;67.80;;;;;;4786168;29;20057;-74
2021/04/09 08:51:47;;;;;;;7.43;3.10;;;8.30;67.30;;;;;;4801008;29;20104;-73
2021/04/09 08:54:24;;;;;;;10.68;3.80;;;8.50;67.60;;;;;;4799226;29;20047;-74
2021/04/09 08:56:50;;;;;;;11.05;3.03;;;8.70;68.00;;;;;;4780087;29;20039;-74
2021/04/09 08:59:49;;;;;;;7.20;2.63;;;8.80;63.80;;;;;;4787547;29;20054;-74
2021/04/09 09:02:24;;;;;;;9.23;3.42;;;8.70;66.50;;;;;;4786849;29;20149;-74
2021/04/09 09:05:02;;;;;;;7.03;3.13;;;8.80;66.60;;;;;;4806828;29;20125;-74
2021/04/09 09:07:49;;;;;;;7.35;3.38;;;8.80;65.90;;;;;;4796407;29;20128;-74
2021/04/09 09:10:40;;;;;;;8.60;2.83;;;8.90;67.50;;;;;;4775950;30;20150;-75
2021/04/09 09:13:11;;;;;;;7.50;3.17;;;9.10;66.50;;;;;;4764015;29;20134;-74
2021/04/09 09:15:43;;;;;;;5.50;2.55;;;9.30;66.10;;;;;;4779589;29;20556;-74
2021/04/09 09:18:26;;;;;;;8.07;2.80;;;9.40;64.90;;;;;;4786264;29;20067;-74
2021/04/09 09:21:01;;;;;;;7.75;3.50;;;9.30;64.50;;;;;;4783086;29;20050;-74
2021/04/09 09:23:56;;;;;;;6.07;2.22;;;9.40;64.60;;;;;;4781581;29;21782;-73
2021/04/09 09:26:41;;;;;;;3.80;1.70;;;9.60;62.50;;;;;;4796571;29;20043;-74
2021/04/09 09:29:16;;;;;;;3.33;1.60;;;9.80;59.70;;;;;;4799251;29;20054;-73
2021/04/09 09:32:06;;;;;;;4.10;1.15;;;9.80;56.50;;;;;;4796928;29;20385;-74
2021/04/09 09:34:41;;;;;;;4.10;1.58;;;9.80;55.90;;;;;;4786372;29;20050;-73
2021/04/09 09:37:11;;;;;;;4.07;1.42;;;9.80;56.10;;;;;;4787335;29;20043;-73
2021/04/09 09:40:07;;;;;;;;;;;9.90;55.60;;;;;;4802319;29;20538;-73
2021/04/09 09:42:33;;;;;;;5.63;2.00;;;10.10;55.00;;;;;;4798323;29;19945;-73
2021/04/09 09:45:04;;;;;;;2.85;1.20;;;10.00;54.50;;;;;;4798247;29;20470;-73
2021/04/09 09:47:32;;;;;;;6.40;1.67;;;10.10;53.70;;;;;;4786818;29;20495;-73
2021/04/09 09:52:47;;;;;;;3.67;1.27;;;10.30;53.60;;;;;;4788743;29;20051;-73
2021/04/09 09:55:16;;;;;;;5.05;1.75;;;10.40;53.90;;;;;;4791348;29;20411;-73
2021/04/09 09:57:46;;;;;;;4.28;1.13;;;10.50;53.10;;;;;;4789476;29;20491;-74
2021/04/09 10:00:14;;;;;;;4.70;2.03;;;10.70;52.60;;;;;;4787259;29;20043;-73
2021/04/09 10:02:42;;;;;;;3.92;1.38;;;10.70;52.70;;;;;;4793331;29;20054;-74
2021/04/09 10:05:09;;;;;;;2.65;1.10;;;10.90;51.00;;;;;;4785481;29;20464;-74
2021/04/09 10:07:36;;;;;;;4.50;1.52;;;10.90;50.40;;;;;;4795532;29;20142;-74
2021/04/09 10:10:04;;;;;;;5.13;1.75;;;11.10;50.30;;;;;;4764401;29;20098;-74
2021/04/09 10:12:30;;;;;;;6.00;2.08;;;11.20;50.10;;;;;;4763925;29;20070;-74
2021/04/09 10:14:57;;;;;;;4.90;2.63;;;11.20;49.90;;;;;;4797336;29;20043;-74
2021/04/09 10:17:24;;;;;;;13.75;5.68;;;11.30;49.70;;;;;;4799281;29;20121;-74
2021/04/09 10:20:03;;;;;;;24.95;10.13;;;11.20;49.80;;;;;;4786456;29;20718;-74
2021/04/09 10:22:29;;;;;;;9.10;3.88;;;11.20;49.20;;;;;;4790321;29;20055;-74
2021/04/09 10:24:56;;;;;;;13.07;5.05;;;11.30;49.90;;;;;;4776124;29;20043;-74
2021/04/09 10:27:25;;;;;;;4.55;1.63;;;11.40;49.80;;;;;;4785182;29;20050;-74
2021/04/09 10:29:51;;;;;;;3.78;1.60;;;11.60;49.20;;;;;;4786563;29;20050;-74
2021/04/09 10:32:20;;;;;;;3.22;1.52;;;11.70;49.00;;;;;;4788076;29;20051;-74
2021/04/09 10:34:48;;;;;;;4.57;2.00;;;11.70;47.20;;;;;;4773311;29;20059;-74
2021/04/09 10:37:23;;;;;;;4.55;1.63;;;11.70;47.20;;;;;;4790108;29;20062;-74
2021/04/09 10:39:51;;;;;;;4.05;1.35;;;11.90;46.70;;;;;;4790513;29;20089;-74
2021/04/09 10:42:19;;;;;;;3.70;1.60;;;12.00;46.80;;;;;;4800776;29;20060;-74
2021/04/09 10:44:49;;;;;;;4.32;1.77;;;12.10;45.80;;;;;;4801674;29;20049;-74
2021/04/09 10:47:16;;;;;;;4.65;1.38;;;12.00;46.40;;;;;;4783341;29;20714;-74
2021/04/09 10:49:44;;;;;;;5.25;1.42;;;12.10;46.80;;;;;;4796447;29;20051;-73
2021/04/09 10:52:17;;;;;;;4.63;1.42;;;12.50;46.90;;;;;;4797067;29;20426;-74
2021/04/09 10:54:45;;;;;;;;;;;12.80;45.50;;;;;;4795201;29;20042;-73
2021/04/09 10:57:18;;;;;;;5.85;1.85;;;13.10;45.60;;;;;;4790752;29;20012;-74
2021/04/09 10:59:49;;;;;;;5.32;1.83;;;13.20;44.50;;;;;;4790127;29;20500;-74
2021/04/09 11:02:22;;;;;;;3.97;1.63;;;13.30;45.20;;;;;;4787795;29;20743;-73
2021/04/09 11:04:51;;;;;;;5.00;1.70;;;13.50;43.30;;;;;;4802473;29;20138;-74
2021/04/09 11:07:18;;;;;;;4.00;1.80;;;13.70;43.90;;;;;;4796811;29;20097;-74
2021/04/09 11:10:06;;;;;;;4.10;1.17;;;13.80;42.90;;;;;;4793355;29;20559;-74
2021/04/09 11:12:32;;;;;;;4.57;2.17;;;13.90;42.60;;;;;;4785040;29;20139;-73
2021/04/09 11:15:11;;;;;;;14.65;5.18;;;13.90;42.80;;;;;;4788665;29;20043;-73
2021/04/09 11:17:40;;;;;;;4.90;1.60;;;13.80;42.10;;;;;;4790705;29;20063;-73
2021/04/09 11:20:22;;;;;;;6.22;1.70;;;13.50;42.30;;;;;;4796757;29;20055;-74
2021/04/09 11:23:13;;;;;;;7.15;2.17;;;13.40;43.70;;;;;;4781159;29;20092;-74
2021/04/09 11:25:43;;;;;;;4.70;2.05;;;13.70;42.30;;;;;;4790643;29;20053;-74
2021/04/09 11:28:25;;;;;;;6.25;1.50;;;13.80;42.00;;;;;;4769662;29;20051;-73
2021/04/09 11:31:04;;;;;;;5.63;1.60;;;14.20;42.70;;;;;;4796126;29;20778;-73
2021/04/09 11:33:39;;;;;;;4.72;1.80;;;14.40;41.70;;;;;;4785636;29;20057;-74
2021/04/09 11:36:23;;;;;;;6.70;2.30;;;14.20;41.10;;;;;;4788232;29;20115;-74
2021/04/09 11:38:53;;;;;;;5.85;2.25;;;14.30;40.80;;;;;;4787606;29;20055;-74
2021/04/09 11:41:34;;;;;;;8.00;1.50;;;14.20;41.20;;;;;;4778419;29;20539;-74
2021/04/09 11:44:21;;;;;;;4.82;1.52;;;14.40;41.00;;;;;;4789732;29;20066;-73
2021/04/09 11:46:48;;;;;;;3.80;1.80;;;14.80;40.10;;;;;;4764915;29;20057;-74
2021/04/09 11:49:15;;;;;;;6.35;1.75;;;14.60;39.80;;;;;;4786725;29;20068;-74
2021/04/09 11:51:42;;;;;;;4.05;1.45;;;14.90;39.00;;;;;;4790292;29;20058;-74
2021/04/09 11:54:28;;;;;;;4.50;1.50;;;15.20;39.20;;;;;;4782490;29;20058;-75
2021/04/09 11:56:55;;;;;;;8.43;1.83;;;15.40;39.00;;;;;;4779583;29;20479;-74
2021/04/09 11:59:23;;;;;;;4.10;1.13;;;15.00;38.50;;;;;;4788565;29;20050;-74
2021/04/09 12:01:50;;;;;;;5.05;1.38;;;14.90;38.80;;;;;;4783427;29;20143;-74
2021/04/09 12:04:36;;;;;;;4.78;1.90;;;15.00;38.40;;;;;;4793207;29;20080;-74
2021/04/09 12:07:11;;;;;;;3.35;1.23;;;15.30;37.90;;;;;;4788468;29;20059;-74
2021/04/09 12:09:37;;;;;;;5.45;1.63;;;15.60;38.20;;;;;;4781493;29;20047;-74
2021/04/09 12:12:06;;;;;;;5.78;1.70;;;16.40;37.20;;;;;;4786782;29;20047;-74
2021/04/09 12:14:36;;;;;;;5.28;1.63;;;17.00;36.90;;;;;;4780330;29;20055;-74
2021/04/09 12:17:04;;;;;;;6.82;2.55;;;17.10;36.50;;;;;;4780365;29;20086;-74
2021/04/09 12:19:31;;;;;;;5.30;1.90;;;17.60;36.20;;;;;;4793884;29;20055;-74
2021/04/09 12:21:58;;;;;;;6.15;1.73;;;17.70;35.40;;;;;;4798024;29;20055;-75
2021/04/09 12:24:25;;;;;;;8.68;2.25;;;17.90;35.30;;;;;;4799749;29;20067;-75
2021/04/09 12:26:51;;;;;;;5.43;2.13;;;18.10;34.50;;;;;;4801339;29;20127;-74
2021/04/09 12:29:18;;;;;;;4.05;1.98;;;17.80;34.60;;;;;;4807442;29;20046;-74
2021/04/09 12:31:45;;;;;;;4.75;1.70;;;18.50;34.20;;;;;;4779136;29;20047;-75
2021/04/09 12:34:13;;;;;;;5.32;1.60;;;19.70;32.30;;;;;;4797697;29;20050;-75
2021/04/09 12:36:40;;;;;;;3.28;1.40;;;19.40;32.60;;;;;;4784349;29;20055;-73
2021/04/09 12:39:11;;;;;;;3.92;1.88;;;20.10;32.30;;;;;;4799519;29;20043;-74
2021/04/09 12:41:38;;;;;;;4.03;2.00;;;20.40;30.70;;;;;;4787547;29;20061;-74
2021/04/09 12:44:05;;;;;;;4.05;1.88;;;21.10;30.90;;;;;;4799161;29;20107;-73
2021/04/09 12:46:32;;;;;;;5.47;2.13;;;21.30;31.00;;;;;;4794748;29;20047;-75
2021/04/09 12:48:59;;;;;;;3.42;1.88;;;21.20;29.70;;;;;;4781290;29;20047;-74
2021/04/09 12:51:26;;;;;;;5.43;1.90;;;21.20;30.00;;;;;;4772066;29;20050;-73
2021/04/09 12:53:53;;;;;;;4.47;1.90;;;20.70;30.50;;;;;;4779573;29;20039;-74
2021/04/09 12:56:21;;;;;;;7.80;1.63;;;21.20;30.40;;;;;;4799888;29;20138;-74
2021/04/09 12:58:48;;;;;;;4.43;1.58;;;22.20;29.90;;;;;;4800107;29;20065;-74
2021/04/09 13:01:14;;;;;;;4.13;2.35;;;22.40;29.10;;;;;;4786480;29;20062;-74